createdAt,value
2023-03-21T00:02:25.212Z,99272.78
2023-03-21T00:05:27.393Z,99275.66
2023-03-21T00:08:29.431Z,99269.78
2023-03-21T00:11:33.080Z,99261.50
2023-03-21T00:14:35.500Z,99259.25
2023-03-21T00:17:39.731Z,99253.63
2023-03-21T00:20:42.049Z,99257.44
2023-03-21T00:23:45.941Z,99261.69
2023-03-21T00:26:48.015Z,99247.13
2023-03-21T00:29:50.431Z,99255.50
2023-03-21T00:32:56.811Z,99251.38
2023-03-21T00:36:05.197Z,99248.91
2023-03-21T00:39:09.153Z,99251.38
2023-03-21T00:42:11.295Z,99250.84
2023-03-21T00:45:13.367Z,99247.75
2023-03-21T00:48:15.474Z,99244.72
2023-03-21T00:51:26.701Z,99239.47
2023-03-21T00:54:28.818Z,99240.69
2023-03-21T00:57:38.704Z,99242.06
2023-03-21T01:00:42.266Z,99245.06
2023-03-21T01:03:48.125Z,99242.22
2023-03-21T01:06:50.328Z,99236.75
2023-03-21T01:09:53.298Z,99233.41
2023-03-21T01:12:55.467Z,99237.84
2023-03-21T01:15:58.059Z,99239.38
2023-03-21T01:19:03.360Z,99225.66
2023-03-21T01:22:07.227Z,99228.78
2023-03-21T01:25:21.979Z,99229.00
2023-03-21T01:28:39.317Z,99226.88
2023-03-21T01:31:41.486Z,99225.94
2023-03-21T01:34:43.617Z,99223.91
2023-03-21T01:37:45.731Z,99224.31
2023-03-21T01:40:52.380Z,99222.00
2023-03-21T01:44:01.686Z,99218.72
2023-03-21T01:47:11.979Z,99223.28
2023-03-21T01:50:14.786Z,99227.84
2023-03-21T01:53:30.667Z,99234.38
2023-03-21T01:56:37.215Z,99231.47
2023-03-21T01:59:42.627Z,99231.56
2023-03-21T02:03:16.905Z,99219.47
2023-03-21T02:06:40.880Z,99222.75
2023-03-21T02:09:53.453Z,99224.25
2023-03-21T02:13:08.222Z,99217.88
2023-03-21T02:16:15.545Z,99221.34
2023-03-21T02:19:31.908Z,99221.50
2023-03-21T02:22:36.983Z,99228.78
2023-03-21T02:25:43.469Z,99227.31
2023-03-21T02:28:58.034Z,99224.41
2023-03-21T02:32:37.525Z,99228.22
2023-03-21T02:36:00.616Z,99224.25
2023-03-21T02:39:30.730Z,99231.16
2023-03-21T02:43:00.046Z,99236.84
2023-03-21T02:46:33.410Z,99246.50
2023-03-21T02:49:50.560Z,99256.72
2023-03-21T02:52:54.900Z,99255.66
2023-03-21T02:55:59.224Z,99253.13
2023-03-21T02:59:04.259Z,99240.59
2023-03-21T03:02:07.608Z,99244.81
2023-03-21T03:05:21.629Z,99243.72
2023-03-21T03:09:02.578Z,99248.31
2023-03-21T03:12:25.925Z,99241.06
2023-03-21T03:15:41.957Z,99239.31
2023-03-21T03:18:55.532Z,99239.69
2023-03-21T03:22:28.135Z,99236.56
2023-03-21T03:25:43.662Z,99240.97
2023-03-21T03:28:53.496Z,99223.97
2023-03-21T03:32:17.428Z,99229.72
2023-03-21T03:35:22.863Z,99226.97
2023-03-21T03:38:27.733Z,99222.78
2023-03-21T03:42:00.847Z,99213.03
2023-03-21T03:44:57.680Z,99213.69
2023-03-21T03:48:05.842Z,99221.78
2023-03-21T03:51:17.017Z,99208.06
2023-03-21T03:54:45.494Z,99205.75
2023-03-21T03:57:48.383Z,99208.06
2023-03-21T04:00:52.306Z,99214.06
2023-03-21T04:04:06.774Z,99220.22
2023-03-21T04:07:14.667Z,99226.56
2023-03-21T04:10:17.784Z,99230.59
2023-03-21T04:13:20.057Z,99241.97
2023-03-21T04:16:40.594Z,99249.13
2023-03-21T04:19:42.945Z,99257.66
2023-03-21T04:22:45.546Z,99250.69
2023-03-21T04:25:56.630Z,99257.22
2023-03-21T04:29:09.435Z,99249.47
2023-03-21T04:32:34.080Z,99255.22
2023-03-21T04:35:46.108Z,99246.69
2023-03-21T04:38:49.936Z,99242.91
2023-03-21T04:41:52.361Z,99241.50
2023-03-21T04:44:55.908Z,99235.22
2023-03-21T04:47:59.004Z,99238.28
2023-03-21T04:51:01.410Z,99242.25
2023-03-21T04:54:05.937Z,99234.72
2023-03-21T04:57:08.469Z,99237.22
2023-03-21T05:00:11.367Z,99234.91
2023-03-21T05:03:19.856Z,99236.56
2023-03-21T05:06:23.374Z,99249.78
2023-03-21T05:09:26.362Z,99252.47
2023-03-21T05:12:28.569Z,99247.78
2023-03-21T05:15:30.936Z,99246.00
2023-03-21T05:18:35.012Z,99232.66
2023-03-21T05:21:45.236Z,99235.91
2023-03-21T05:25:06.561Z,99239.28
2023-03-21T05:28:31.748Z,99245.09
2023-03-21T05:31:36.607Z,99235.56
2023-03-21T05:34:43.934Z,99248.78
2023-03-21T05:37:46.128Z,99255.13
2023-03-21T05:40:49.376Z,99252.09
2023-03-21T05:43:52.641Z,99247.16
2023-03-21T05:46:54.750Z,99249.28
2023-03-21T05:50:02.612Z,99253.41
2023-03-21T05:53:06.098Z,99257.03
2023-03-21T05:56:08.777Z,99264.00
2023-03-21T05:59:37.027Z,99266.28
2023-03-21T06:02:40.124Z,99265.78
2023-03-21T06:05:47.719Z,99256.19
2023-03-21T06:08:56.165Z,99251.41
2023-03-21T06:11:59.642Z,99256.19
2023-03-21T06:15:15.549Z,99264.75
2023-03-21T06:18:28.877Z,99258.69
2023-03-21T06:21:39.621Z,99267.56
2023-03-21T06:24:43.422Z,99271.69
2023-03-21T06:27:45.743Z,99268.91
2023-03-21T06:30:47.867Z,99273.34
2023-03-21T06:33:57.143Z,99268.84
2023-03-21T06:36:59.303Z,99269.16
2023-03-21T06:40:09.088Z,99267.41
2023-03-21T06:43:11.872Z,99264.09
2023-03-21T06:46:14.719Z,99257.03
2023-03-21T06:49:19.717Z,99253.16
2023-03-21T06:52:22.590Z,99255.88
2023-03-21T06:55:29.090Z,99248.75
2023-03-21T06:58:33.839Z,99242.34
2023-03-21T07:01:37.106Z,99245.91
2023-03-21T07:04:42.340Z,99254.13
2023-03-21T07:07:50.901Z,99259.56
2023-03-21T07:10:57.331Z,99272.91
2023-03-21T07:13:59.740Z,99268.91
2023-03-21T07:17:02.659Z,99268.59
2023-03-21T07:20:08.793Z,99276.75
2023-03-21T07:23:11.309Z,99270.66
2023-03-21T07:26:13.605Z,99264.81
2023-03-21T07:29:17.653Z,99263.13
2023-03-21T07:32:19.822Z,99272.88
2023-03-21T07:35:22.126Z,99271.56
2023-03-21T07:38:25.504Z,99268.19
2023-03-21T07:41:27.777Z,99269.44
2023-03-21T07:44:42.955Z,99273.75
2023-03-21T07:47:45.507Z,99270.91
2023-03-21T07:50:49.673Z,99259.59
2023-03-21T07:53:52.154Z,99263.97
2023-03-21T07:56:56.085Z,99270.69
2023-03-21T07:59:58.638Z,99265.81
2023-03-21T08:03:01.158Z,99264.00
2023-03-21T08:06:04.106Z,99266.56
2023-03-21T08:09:06.376Z,99263.88
2023-03-21T08:12:08.598Z,99269.59
2023-03-21T08:15:12.615Z,99268.41
2023-03-21T08:18:14.717Z,99275.19
2023-03-21T08:21:17.140Z,99277.50
2023-03-21T08:24:19.941Z,99274.22
2023-03-21T08:27:22.009Z,99273.84
2023-03-21T08:30:27.134Z,99266.75
2023-03-21T08:33:30.388Z,99272.75
2023-03-21T08:36:32.757Z,99277.53
2023-03-21T08:39:35.081Z,99266.47
2023-03-21T08:42:41.458Z,99277.69
2023-03-21T08:45:43.830Z,99272.63
2023-03-21T08:48:45.968Z,99267.81
2023-03-21T08:51:48.004Z,99278.66
2023-03-21T08:54:50.971Z,99273.16
2023-03-21T08:57:53.233Z,99289.13
2023-03-21T09:00:56.569Z,99282.31
2023-03-21T09:03:58.803Z,99265.91
2023-03-21T09:07:04.219Z,99287.59
2023-03-21T09:10:20.571Z,99288.84
2023-03-21T09:13:24.559Z,99290.88
2023-03-21T09:16:26.849Z,99285.03
2023-03-21T09:19:30.173Z,99293.31
2023-03-21T09:22:32.725Z,99294.91
2023-03-21T09:25:35.341Z,99287.38
2023-03-21T09:28:40.670Z,99287.94
2023-03-21T09:31:44.166Z,99290.59
2023-03-21T09:34:46.596Z,99288.81
2023-03-21T09:37:50.147Z,99280.16
2023-03-21T09:41:04.563Z,99292.31
2023-03-21T09:44:37.951Z,99282.63
2023-03-21T09:47:53.565Z,99283.19
2023-03-21T09:50:57.732Z,99277.63
2023-03-21T09:54:12.886Z,99285.72
2023-03-21T09:57:21.075Z,99282.84
2023-03-21T10:00:35.296Z,99270.53
2023-03-21T10:03:38.207Z,99278.66
2023-03-21T10:06:42.887Z,99272.25
2023-03-21T10:09:47.299Z,99257.34
2023-03-21T10:12:52.879Z,99259.44
2023-03-21T10:15:57.892Z,99257.03
2023-03-21T10:19:05.506Z,99262.00
2023-03-21T10:22:09.161Z,99258.47
2023-03-21T10:25:24.867Z,99237.91
2023-03-21T10:28:52.163Z,99253.53
2023-03-21T10:31:56.058Z,99250.78
2023-03-21T10:34:59.100Z,99248.28
2023-03-21T10:38:01.780Z,99251.31
2023-03-21T10:41:03.942Z,99245.16
2023-03-21T10:44:08.895Z,99251.63
2023-03-21T10:47:11.186Z,99247.66
2023-03-21T10:50:17.940Z,99252.31
2023-03-21T10:53:35.191Z,99259.28
2023-03-21T10:56:40.932Z,99250.00
2023-03-21T11:00:07.916Z,99248.91
2023-03-21T11:03:29.044Z,99239.00
2023-03-21T11:06:33.884Z,99242.56
2023-03-21T11:09:55.923Z,99247.38
2023-03-21T11:13:03.793Z,99239.84
2023-03-21T11:16:11.028Z,99238.34
2023-03-21T11:19:14.916Z,99239.03
2023-03-21T11:22:20.755Z,99231.91
2023-03-21T11:25:37.175Z,99225.00
2023-03-21T11:28:41.788Z,99220.75
2023-03-21T11:31:44.971Z,99214.78
2023-03-21T11:34:50.745Z,99205.53
2023-03-21T11:37:55.334Z,99209.66
2023-03-21T11:41:00.523Z,99184.03
2023-03-21T11:44:03.094Z,99193.75
2023-03-21T11:47:05.657Z,99193.75
2023-03-21T11:50:33.971Z,99184.09
2023-03-21T11:53:51.633Z,99179.13
2023-03-21T11:57:01.581Z,99182.75
2023-03-21T12:00:22.569Z,99180.22
2023-03-21T12:03:54.844Z,99185.88
2023-03-21T12:07:07.826Z,99182.03
2023-03-21T12:10:32.761Z,99183.19
2023-03-21T12:13:45.989Z,99177.56
2023-03-21T12:17:19.941Z,99174.28
2023-03-21T12:20:47.452Z,99181.31
2023-03-21T12:24:11.425Z,99173.31
2023-03-21T12:27:19.217Z,99171.97
2023-03-21T12:30:43.373Z,99172.66
2023-03-21T12:33:54.740Z,99167.84
2023-03-21T12:37:03.274Z,99169.59
2023-03-21T12:40:41.102Z,99162.53
2023-03-21T12:44:19.298Z,99151.34
2023-03-21T12:47:58.757Z,99154.00
2023-03-21T13:51:37.776Z,99152.28
2023-03-21T14:24:04.301Z,99129.66
2023-03-21T14:50:01.779Z,99132.06
2023-03-21T14:59:42.731Z,99131.72
2023-03-21T15:09:25.371Z,99124.59
2023-03-21T15:19:05.772Z,99123.97
2023-03-21T16:06:30.887Z,99114.31
2023-03-21T16:09:42.900Z,99116.91
2023-03-21T16:12:45.263Z,99116.78
2023-03-21T16:15:47.371Z,99108.28
2023-03-21T16:18:50.599Z,99119.00
2023-03-21T16:21:53.498Z,99120.31
2023-03-21T16:24:55.684Z,99127.28
2023-03-21T16:27:57.902Z,99123.75
2023-03-21T16:31:00.102Z,99133.50
2023-03-21T16:34:05.189Z,99128.94
2023-03-21T16:37:10.646Z,99134.22
2023-03-21T16:40:22.425Z,99136.03
2023-03-21T16:43:24.623Z,99148.97
2023-03-21T16:46:27.142Z,99142.38
2023-03-21T16:49:29.584Z,99141.16
2023-03-21T16:52:31.702Z,99154.94
2023-03-21T16:55:34.886Z,99145.66
2023-03-21T16:58:37.092Z,99150.59
2023-03-21T17:01:41.478Z,99154.22
2023-03-21T17:04:44.708Z,99145.50
2023-03-21T17:07:47.139Z,99157.47
2023-03-21T17:10:49.364Z,99162.47
2023-03-21T17:13:53.984Z,99162.47
2023-03-21T17:16:56.068Z,99163.38
2023-03-21T17:19:58.264Z,99162.97
2023-03-21T17:23:00.530Z,99163.34
2023-03-21T17:26:02.668Z,99158.44
2023-03-21T17:29:05.393Z,99163.47
2023-03-21T17:32:07.836Z,99172.13
2023-03-21T17:35:09.984Z,99172.41
2023-03-21T17:38:16.697Z,99174.56
2023-03-21T17:41:20.625Z,99177.63
2023-03-21T17:44:22.957Z,99176.44
2023-03-21T17:47:25.834Z,99188.44
2023-03-21T17:50:34.367Z,99182.31
2023-03-21T17:53:37.235Z,99190.19
2023-03-21T17:56:40.080Z,99195.53
2023-03-21T17:59:42.123Z,99198.25
2023-03-21T18:02:44.327Z,99197.72
2023-03-21T18:05:46.626Z,99196.78
2023-03-21T18:08:49.551Z,99194.31
2023-03-21T18:12:24.207Z,99200.25
2023-03-21T18:15:30.126Z,99195.91
2023-03-21T18:18:32.939Z,99197.03
2023-03-21T18:21:36.092Z,99194.88
2023-03-21T18:24:39.746Z,99196.63
2023-03-21T18:28:06.715Z,99200.75
2023-03-21T18:31:14.906Z,99202.69
2023-03-21T18:34:21.677Z,99200.03
2023-03-21T18:37:24.068Z,99204.47
2023-03-21T18:40:26.483Z,99205.50
2023-03-21T18:46:51.293Z,99209.19
2023-03-21T18:53:16.590Z,99208.47
2023-03-21T18:57:05.960Z,99229.44
2023-03-21T18:59:42.424Z,99224.47
2023-03-21T19:02:48.282Z,99226.75
2023-03-21T19:05:50.861Z,99226.53
2023-03-21T19:08:55.280Z,99231.91
2023-03-21T19:11:58.212Z,99233.94
2023-03-21T19:15:01.134Z,99228.50
2023-03-21T19:21:27.505Z,99239.34
2023-03-21T19:24:30.061Z,99233.94
2023-03-21T19:27:33.958Z,99238.91
2023-03-21T19:30:36.860Z,99236.03
2023-03-21T19:33:39.433Z,99240.47
2023-03-21T19:36:45.945Z,99242.63
2023-03-21T19:39:51.838Z,99241.50
2023-03-21T19:42:54.114Z,99245.06
2023-03-21T19:46:03.609Z,99250.06
2023-03-21T19:49:06.665Z,99246.28
2023-03-21T19:52:09.739Z,99250.16
2023-03-21T19:55:14.909Z,99254.28
2023-03-21T19:58:21.319Z,99261.00
2023-03-21T20:01:25.172Z,99261.28
2023-03-21T20:04:27.931Z,99255.81
2023-03-21T20:07:32.725Z,99253.97
2023-03-21T20:10:35.695Z,99253.56
2023-03-21T20:13:38.808Z,99252.41
2023-03-21T20:16:43.644Z,99253.63
2023-03-21T20:19:47.325Z,99257.56
2023-03-21T20:23:06.103Z,99247.06
2023-03-21T20:26:13.478Z,99256.06
2023-03-21T20:32:39.481Z,99263.59
2023-03-21T20:39:04.092Z,99272.63
2023-03-21T20:42:07.260Z,99269.31
2023-03-21T20:45:18.556Z,99279.38
2023-03-21T20:48:20.668Z,99277.09
2023-03-21T20:54:45.768Z,99287.84
2023-03-21T20:57:48.858Z,99282.81
2023-03-21T21:00:51.767Z,99286.06
2023-03-21T21:03:57.528Z,99284.84
2023-03-21T21:07:00.225Z,99288.38
2023-03-21T21:10:03.682Z,99283.22
2023-03-21T21:13:07.579Z,99283.97
2023-03-21T21:16:10.585Z,99289.31
2023-03-21T21:19:12.926Z,99288.94
2023-03-21T21:22:15.036Z,99292.97
2023-03-21T21:25:17.562Z,99298.50
2023-03-21T21:28:31.649Z,99296.19
2023-03-21T21:31:34.961Z,99298.84
2023-03-21T21:34:37.528Z,99302.25
2023-03-21T21:37:42.059Z,99304.28
2023-03-21T21:40:46.137Z,99305.56
2023-03-21T21:43:48.854Z,99308.13
2023-03-21T21:46:51.426Z,99307.13
2023-03-21T21:49:53.772Z,99310.06
2023-03-21T21:52:55.892Z,99313.28
2023-03-21T21:55:57.946Z,99315.19
2023-03-21T21:59:03.366Z,99305.84
2023-03-21T22:02:06.005Z,99326.16
2023-03-21T22:05:09.127Z,99311.91
2023-03-21T22:08:11.726Z,99322.56
2023-03-21T22:11:14.796Z,99326.59
2023-03-21T22:14:16.945Z,99332.00
2023-03-21T22:17:19.003Z,99328.69
2023-03-21T22:20:22.146Z,99318.13
2023-03-21T22:23:26.148Z,99316.31
2023-03-21T22:26:28.260Z,99320.63
2023-03-21T22:29:30.400Z,99324.81
2023-03-21T22:32:32.836Z,99330.69
2023-03-21T22:35:35.015Z,99312.59
2023-03-21T22:38:38.329Z,99330.28
2023-03-21T22:41:40.815Z,99334.59
2023-03-21T22:44:42.906Z,99332.47
2023-03-21T22:47:44.954Z,99332.28
2023-03-21T22:50:47.947Z,99327.94
2023-03-21T22:53:50.091Z,99330.56
2023-03-21T22:56:52.260Z,99327.09
2023-03-21T22:59:54.359Z,99320.81
2023-03-21T23:02:57.336Z,99322.63
2023-03-21T23:06:03.790Z,99308.97
2023-03-21T23:09:06.812Z,99317.09
2023-03-21T23:12:08.920Z,99313.41
2023-03-21T23:15:11.611Z,99308.44
2023-03-21T23:18:13.672Z,99312.31
2023-03-21T23:21:16.611Z,99306.19
2023-03-21T23:24:18.735Z,99310.78
2023-03-21T23:27:20.940Z,99307.22
2023-03-21T23:30:23.443Z,99308.94
2023-03-21T23:33:25.651Z,99311.25
2023-03-21T23:36:27.851Z,99311.81
2023-03-21T23:39:29.984Z,99314.63
2023-03-21T23:42:34.281Z,99315.88
2023-03-21T23:45:36.470Z,99318.38
2023-03-21T23:48:39.450Z,99311.69
2023-03-21T23:51:41.595Z,99305.22
2023-03-21T23:54:43.745Z,99309.78
2023-03-21T23:57:45.823Z,99310.75
